Eurodam — PHOS — position and weather

sailwx.info

Track history (hours):
 
Tides and Currents Weather Stations Pressure Air Temp Water Temp Dewpoint Dewpoint Depression Visibility Wind Speed Wind Dir Waves Ship Positions

Eurodam (Netherlands)

Last reported at 2019-Jul-20 01:30 UTC. Time now 2019-Jul-20 01:44 UTC.
Position N 48°25' W 123°24'.

Length 287 m; draft 8 m.

Type: Ship. MMSI: 245206000.

Date/timePositionNaut miles runAvg speedWind from/ knotsBaromVisibWave heightAir tempDewpointWater temp
2019-Jul-20 01:30N 48°25' W 123°24'510.3
2019-Jul-20 01:00N 48°20' W 123°25'918.2
2019-Jul-20 00:30N 48°14' W 123°34'1222.9
2019-Jul-20 00:00N 48°14' W 123°52'1121.3
2019-Jul-19 23:29N 48°17' W 124°07'918.9
2019-Jul-19 23:00N 48°21' W 124°20'1019.4
2019-Jul-19 22:30N 48°25' W 124°33'1121.6
2019-Jul-19 22:00N 48°28' W 124°49'4572.4
2019-Jul-19 22:00N 48°24' W 124°48'1225.3 010 / 21021.010.8 15.812.711.0
2019-Jul-19 21:30N 48°29' W 125°05'1019.7
2019-Jul-19 21:00N 48°31' W 125°19'816.5
2019-Jul-19 20:30N 48°35' W 125°31'1019.6
2019-Jul-19 20:00N 48°39' W 125°44'1020.9
2019-Jul-19 19:30N 48°45' W 125°57'1121.2
2019-Jul-19 19:00N 48°51' W 126°11'1121.1
2019-Jul-19 18:30N 48°57' W 126°23'1121.5
2019-Jul-19 18:00N 49°04' W 126°36'1121.5
2019-Jul-19 17:29N 49°11' W 126°49'4919.7
2019-Jul-19 15:00N 49°42' W 127°48'2626.4 010 / 21019.210.8 15.412.315.0
2019-Jul-19 14:00N 50°00' W 128°18'1519.7 340 / 61019.510.8 15.012.515.0
2019-Jul-19 13:13N 50°14' W 128°27'419.2
2019-Jul-19 13:00N 50°18' W 128°30'153.7 300 / 121019.010.8 13.912.314.7
2019-Jul-19 12:58N 50°19' W 128°30'1021.3
2019-Jul-19 12:30N 50°28' W 128°35'1121.2
2019-Jul-19 12:00N 50°39' W 128°40'1121.2
2019-Jul-19 11:30N 50°49' W 128°45'1122.3
2019-Jul-19 11:00N 50°59' W 128°53'1121.8
2019-Jul-19 10:31N 51°08' W 129°01'1121.4
2019-Jul-19 10:00N 51°18' W 129°09'1121.1
2019-Jul-19 09:30N 51°27' W 129°17'1121.0
2019-Jul-19 09:00N 51°36' W 129°24'1020.6
2019-Jul-19 08:30N 51°46' W 129°32'1021.0
2019-Jul-19 08:01N 51°55' W 129°39'1121.3
2019-Jul-19 07:30N 52°05' W 129°46'1121.0
2019-Jul-19 06:57N 52°15' W 129°54'9 9.7
2019-Jul-19 06:00N 52°24' W 130°00'5426.6 220 / 101017.010.8 14.210.814.2
2019-Jul-19 03:57N 53°13' W 130°39'921.2
2019-Jul-19 03:30N 53°21' W 130°46'1121.4
2019-Jul-19 02:59N 53°32' W 130°52'1021.6
2019-Jul-19 02:31N 53°42' W 130°55'1121.7
2019-Jul-19 02:00N 53°53' W 130°59'1121.1
2019-Jul-19 01:30N 54°03' W 131°01'1021.0
2019-Jul-19 01:00N 54°14' W 131°03'1020.4
2019-Jul-19 00:30N 54°23' W 131°09'1020.9
2019-Jul-19 00:00N 54°32' W 131°20'153 8.1
2019-Jul-18 05:00N 56°00' W 135°00'126 5.3 270 / 171002.410.8 13.212.511.0
2019-Jul-17 05:00N 57°48' W 137°00'4012.6 180 / 251000.8 5.4 13.512.814.0
2019-Jul-17 01:50N 58°19' W 136°13'617.6
2019-Jul-17 01:30N 58°21' W 136°03'611.4
2019-Jul-17 01:00N 58°26' W 135°59'611.6
2019-Jul-17 00:30N 58°32' W 136°04'713.5
2019-Jul-17 00:01N 58°39' W 136°03'714.1
2019-Jul-16 23:31N 58°44' W 136°13'816.0
2019-Jul-16 23:00N 58°48' W 136°26'166.6
2019-Jul-16 23:00N 58°48' W 136°24'0 0.0 310 / 101006.4 5.4 10.910.1 9.0
2019-Jul-16 17:00N 58°48' W 136°24'711.0 330 / 61010.0 5.4 10.510.0 8.3
2019-Jul-16 16:21N 58°43' W 136°14'618.4
2019-Jul-16 16:00N 58°38' W 136°07'9565.1
2019-Jul-16 16:00N 58°30' W 136°00'2 3.8 350 / 61010.5 5.4 11.911.3 8.7
2019-Jul-16 15:30N 58°30' W 136°03'511.0
2019-Jul-16 15:00N 58°26' W 135°58'510.8
2019-Jul-16 14:30N 58°20' W 135°57'611.1
2019-Jul-16 14:01N 58°18' W 135°47'612.0
2019-Jul-16 13:30N 58°16' W 135°36'612.1
2019-Jul-16 13:00N 58°14' W 135°25'612.1
2019-Jul-16 12:28N 58°12' W 135°14'38010.1
2019-Jul-14 23:00N 52°12' W 131°42'3316.3 260 / 71017.310.8 16.2 16.4
2019-Jul-14 21:00N 51°48' W 131°06'6422.3 260 / 61018.510.8 15.810.714.2
2019-Jul-14 18:08N 51°02' W 129°55'2021.6
2019-Jul-14 17:14N 50°48' W 129°34'1221.7
2019-Jul-14 16:41N 50°40' W 129°20'421.5
2019-Jul-14 16:30N 50°37' W 129°16'1221.7
2019-Jul-14 15:58N 50°29' W 129°03'11421.7
2019-Jul-14 10:43N 49°13' W 126°51'521.4
2019-Jul-14 10:29N 49°10' W 126°45'1021.3
2019-Jul-14 10:00N 49°05' W 126°32'1021.0
2019-Jul-14 09:30N 48°59' W 126°18'1121.1
2019-Jul-14 09:00N 48°54' W 126°04'1122.0
2019-Jul-14 08:30N 48°48' W 125°50'1121.7
2019-Jul-14 08:00N 48°43' W 125°36'1121.5
2019-Jul-14 07:30N 48°40' W 125°20'1122.3
2019-Jul-14 07:00N 48°36' W 125°04'1121.7
2019-Jul-14 06:30N 48°32' W 124°49'1121.8
2019-Jul-14 06:00N 48°28' W 124°34'1121.5
2019-Jul-14 05:30N 48°24' W 124°19'1121.4
2019-Jul-14 05:00N 48°20' W 124°04'1019.3
2019-Jul-14 04:30N 48°17' W 123°50'918.1
2019-Jul-14 04:00N 48°16' W 123°36'53281.3
2019-Jul-14 04:00N 48°12' W 123°30'3 6.7 320 / 301015.910.8 14.512.513.5
2019-Jul-14 03:30N 48°12' W 123°25'510.8
2019-Jul-14 03:00N 48°10' W 123°18'1120.9
2019-Jul-14 02:30N 48°13' W 123°02'1121.1
2019-Jul-14 01:58N 48°11' W 122°46'1321.2
2019-Jul-14 01:22N 47°60' W 122°36'720.7
2019-Jul-14 01:01N 47°55' W 122°29'1019.7
2019-Jul-14 00:31N 47°45' W 122°26'714.5
2019-Jul-14 00:00N 47°38' W 122°26'2 3.5
2019-Jul-13 23:29N 47°38' W 122°23'0 0.0
2019-Jul-13 22:59N 47°38' W 122°23'0 0.0
2019-Jul-13 22:29N 47°38' W 122°23'0 0.0
2019-Jul-13 21:59N 47°38' W 122°23'0 0.0
2019-Jul-13 21:30N 47°38' W 122°23'0 0.0
2019-Jul-13 20:58N 47°38' W 122°23'0 0.0
2019-Jul-13 20:30N 47°38' W 122°23'0 0.0
2019-Jul-13 19:59N 47°38' W 122°23'0 0.0
2019-Jul-13 19:29N 47°38' W 122°23'0 0.0
2019-Jul-13 18:54N 47°38' W 122°23'0 0.0
2019-Jul-13 18:26N 47°38' W 122°23'0 0.0
2019-Jul-13 17:59N 47°38' W 122°23'0 0.0
2019-Jul-13 17:29N 47°38' W 122°23'0 0.0
2019-Jul-13 16:59N 47°38' W 122°23'0 0.0
2019-Jul-13 16:29N 47°38' W 122°23'0 0.0
2019-Jul-13 15:56N 47°38' W 122°23'0 0.0
2019-Jul-13 15:29N 47°38' W 122°23'0 0.0
2019-Jul-13 14:59N 47°38' W 122°23'0 0.0
2019-Jul-13 14:29N 47°38' W 122°23'0 0.0
2019-Jul-13 13:59N 47°38' W 122°23'0 0.0
2019-Jul-13 13:29N 47°38' W 122°23'0 0.0
2019-Jul-13 12:56N 47°38' W 122°23'0 0.0
2019-Jul-13 12:30N 47°38' W 122°23'2 3.2
2019-Jul-13 12:01N 47°37' W 122°25'713.2
2019-Jul-13 11:31N 47°43' W 122°27'816.6
2019-Jul-13 11:00N 47°52' W 122°29'815.3
2019-Jul-13 10:28N 47°58' W 122°36'715.8
2019-Jul-13 10:00N 48°05' W 122°40'815.9
2019-Jul-13 09:30N 48°11' W 122°48'816.8
2019-Jul-13 09:00N 48°12' W 123°01'816.6
2019-Jul-13 08:30N 48°11' W 123°13'715.0
2019-Jul-13 08:00N 48°10' W 123°24'915.7
2019-Jul-13 07:27N 48°18' W 123°28'614.3
2019-Jul-13 07:01N 48°24' W 123°24'1 1.7
2019-Jul-13 06:28N 48°25' W 123°23'0 0.0
2019-Jul-13 05:58N 48°25' W 123°23'0 0.0
2019-Jul-13 05:28N 48°25' W 123°23'0 0.0
2019-Jul-13 04:58N 48°25' W 123°23'0 0.0
2019-Jul-13 04:28N 48°25' W 123°23'0 0.0
2019-Jul-13 03:58N 48°25' W 123°23'0 0.0
2019-Jul-13 03:28N 48°25' W 123°23'0 0.0
2019-Jul-13 03:00N 48°25' W 123°23'0 0.0
2019-Jul-13 02:30N 48°25' W 123°23'0 0.0
2019-Jul-13 01:59N 48°25' W 123°23'0 0.0
2019-Jul-13 01:29N 48°25' W 123°23'1 2.3
2019-Jul-13 01:01N 48°24' W 123°25'611.5
2019-Jul-13 00:30N 48°19' W 123°25'917.4
2019-Jul-12 23:59N 48°13' W 123°36'1021.7
2019-Jul-12 23:30N 48°13' W 123°52'1121.6
2019-Jul-12 23:00N 48°17' W 124°07'1122.3
2019-Jul-12 22:30N 48°22' W 124°22'1122.5
2019-Jul-12 22:00N 48°26' W 124°37'3161.9
2019-Jul-12 22:00N 48°24' W 124°36'1325.3 300 / 111016.8 0.1 16.013.114.6
2019-Jul-12 21:29N 48°28' W 124°54'1121.9
2019-Jul-12 21:00N 48°29' W 125°10'1121.5
2019-Jul-12 20:30N 48°34' W 125°24'1121.5
2019-Jul-12 20:00N 48°39' W 125°38'1121.7
2019-Jul-12 19:30N 48°45' W 125°52'1121.6
2019-Jul-12 19:00N 48°51' W 126°06'1122.0
2019-Jul-12 18:30N 48°57' W 126°20'1122.1
2019-Jul-12 18:00N 49°03' W 126°33'1121.5
2019-Jul-12 17:29N 49°10' W 126°47'12 7.7
2019-Jul-12 16:00N 49°18' W 127°00'2019.7 150 / 91017.610.8 16.013.014.5
2019-Jul-12 15:00N 49°30' W 127°24'4343.1 150 / 101017.110.8 15.513.414.7
2019-Jul-12 14:00N 50°00' W 128°12'1921.3 120 / 191017.110.8 15.413.414.8
2019-Jul-12 13:06N 50°16' W 128°27'217.2
2019-Jul-12 13:00N 50°18' W 128°28'1121.0
2019-Jul-12 12:30N 50°28' W 128°33'1121.7
2019-Jul-12 12:00N 50°38' W 128°39'1020.9
2019-Jul-12 11:30N 50°48' W 128°44'1020.9
2019-Jul-12 11:00N 50°57' W 128°52'1020.7
2019-Jul-12 10:30N 51°06' W 129°00'1121.2
2019-Jul-12 10:00N 51°16' W 129°08'1121.3
2019-Jul-12 09:30N 51°25' W 129°16'1020.9
2019-Jul-12 09:00N 51°34' W 129°24'1121.2
2019-Jul-12 08:30N 51°44' W 129°31'1122.0
2019-Jul-12 08:00N 51°54' W 129°38'1422.0
2019-Jul-12 07:23N 52°07' W 129°48'921.8
2019-Jul-12 06:59N 52°14' W 129°54'1021.3
2019-Jul-12 06:29N 52°24' W 130°01'3322.2
2019-Jul-12 05:00N 52°54' W 130°24'1519.7 150 / 151018.0 5.4 15.013.814.0
2019-Jul-12 04:13N 53°08' W 130°35'421.3
2019-Jul-12 04:00N 53°12' W 130°38'1121.4
2019-Jul-12 03:30N 53°22' W 130°46'816.5
2019-Jul-12 03:00N 53°30' W 130°48'31057.6 150 / 201017.5 5.4 14.413.815.0
2019-Jul-12 02:59N 53°32' W 130°51'1020.5
2019-Jul-12 02:30N 53°42' W 130°54'1224.1
2019-Jul-12 02:00N 53°54' W 130°54'917.7 150 / 241017.0 5.4 15.014.214.3
2019-Jul-12 01:30N 54°02' W 130°59'1121.2
2019-Jul-12 01:00N 54°13' W 131°02'184.6
2019-Jul-12 01:00N 54°12' W 131°00'1224.1 180 / 211017.9 5.4 14.613.615.6
2019-Jul-12 00:30N 54°22' W 131°10'1121.2
2019-Jul-12 00:00N 54°31' W 131°20'2220.4
2019-Jul-11 22:55N 54°50' W 131°40'103 6.5
2019-Jul-11 07:00N 56°06' W 133°42'3718.7 190 / 161012.810.8 12.911.615.5
2019-Jul-11 05:00N 56°00' W 134°48'133 5.5 300 / 161011.410.8 13.612.515.9
2019-Jul-10 05:00N 57°54' W 136°54'3312.4 310 / 111013.810.8 14.811.512.7
2019-Jul-10 02:22N 58°19' W 136°14'514.1
2019-Jul-10 02:00N 58°20' W 136°05'161006.4
2019-Jul-10 02:00N 58°36' W 136°06'   250 / 241012.810.8 15.511.511.2
Track history (hours):
 
Tides and Currents Weather Stations Pressure Air Temp Water Temp Dewpoint Dewpoint Depression Visibility Wind Speed Wind Dir Waves Ship Positions

Eurodam (Netherlands)

Last reported at 2019-Jul-20 01:30 UTC. Time now 2019-Jul-20 01:44 UTC.
Position N 48°25' W 123°24'.

Length 287 m; draft 8 m.

Type: Ship. MMSI: 245206000.

Date/timePositionNaut miles runAvg speedWind from/ knotsBaromVisibWave heightAir tempDewpointWater temp
2019-Jul-20 01:30N 48°25' W 123°24'510.3
2019-Jul-20 01:00N 48°20' W 123°25'918.2
2019-Jul-20 00:30N 48°14' W 123°34'1222.9
2019-Jul-20 00:00N 48°14' W 123°52'1121.3
2019-Jul-19 23:29N 48°17' W 124°07'918.9
2019-Jul-19 23:00N 48°21' W 124°20'1019.4
2019-Jul-19 22:30N 48°25' W 124°33'1121.6
2019-Jul-19 22:00N 48°28' W 124°49'4572.4
2019-Jul-19 22:00N 48°24' W 124°48'1225.3 010 / 21021.010.8 15.812.711.0
2019-Jul-19 21:30N 48°29' W 125°05'1019.7
2019-Jul-19 21:00N 48°31' W 125°19'816.5
2019-Jul-19 20:30N 48°35' W 125°31'1019.6
2019-Jul-19 20:00N 48°39' W 125°44'1020.9
2019-Jul-19 19:30N 48°45' W 125°57'1121.2
2019-Jul-19 19:00N 48°51' W 126°11'1121.1
2019-Jul-19 18:30N 48°57' W 126°23'1121.5
2019-Jul-19 18:00N 49°04' W 126°36'1121.5
2019-Jul-19 17:29N 49°11' W 126°49'4919.7
2019-Jul-19 15:00N 49°42' W 127°48'2626.4 010 / 21019.210.8 15.412.315.0
2019-Jul-19 14:00N 50°00' W 128°18'1519.7 340 / 61019.510.8 15.012.515.0
2019-Jul-19 13:13N 50°14' W 128°27'419.2
2019-Jul-19 13:00N 50°18' W 128°30'153.7 300 / 121019.010.8 13.912.314.7
2019-Jul-19 12:58N 50°19' W 128°30'1021.3
2019-Jul-19 12:30N 50°28' W 128°35'1121.2
2019-Jul-19 12:00N 50°39' W 128°40'1121.2
2019-Jul-19 11:30N 50°49' W 128°45'1122.3
2019-Jul-19 11:00N 50°59' W 128°53'1121.8
2019-Jul-19 10:31N 51°08' W 129°01'1121.4
2019-Jul-19 10:00N 51°18' W 129°09'1121.1
2019-Jul-19 09:30N 51°27' W 129°17'1121.0
2019-Jul-19 09:00N 51°36' W 129°24'1020.6
2019-Jul-19 08:30N 51°46' W 129°32'1021.0
2019-Jul-19 08:01N 51°55' W 129°39'1121.3
2019-Jul-19 07:30N 52°05' W 129°46'1121.0
2019-Jul-19 06:57N 52°15' W 129°54'9 9.7
2019-Jul-19 06:00N 52°24' W 130°00'5426.6 220 / 101017.010.8 14.210.814.2
2019-Jul-19 03:57N 53°13' W 130°39'921.2
2019-Jul-19 03:30N 53°21' W 130°46'1121.4
2019-Jul-19 02:59N 53°32' W 130°52'1021.6
2019-Jul-19 02:31N 53°42' W 130°55'1121.7
2019-Jul-19 02:00N 53°53' W 130°59'1121.1
2019-Jul-19 01:30N 54°03' W 131°01'1021.0
2019-Jul-19 01:00N 54°14' W 131°03'1020.4
2019-Jul-19 00:30N 54°23' W 131°09'1020.9
2019-Jul-19 00:00N 54°32' W 131°20'153 8.1
2019-Jul-18 05:00N 56°00' W 135°00'126 5.3 270 / 171002.410.8 13.212.511.0
2019-Jul-17 05:00N 57°48' W 137°00'4012.6 180 / 251000.8 5.4 13.512.814.0
2019-Jul-17 01:50N 58°19' W 136°13'617.6
2019-Jul-17 01:30N 58°21' W 136°03'611.4
2019-Jul-17 01:00N 58°26' W 135°59'611.6
2019-Jul-17 00:30N 58°32' W 136°04'713.5
2019-Jul-17 00:01N 58°39' W 136°03'714.1
2019-Jul-16 23:31N 58°44' W 136°13'816.0
2019-Jul-16 23:00N 58°48' W 136°26'166.6
2019-Jul-16 23:00N 58°48' W 136°24'0 0.0 310 / 101006.4 5.4 10.910.1 9.0
2019-Jul-16 17:00N 58°48' W 136°24'711.0 330 / 61010.0 5.4 10.510.0 8.3
2019-Jul-16 16:21N 58°43' W 136°14'618.4
2019-Jul-16 16:00N 58°38' W 136°07'9565.1
2019-Jul-16 16:00N 58°30' W 136°00'2 3.8 350 / 61010.5 5.4 11.911.3 8.7
2019-Jul-16 15:30N 58°30' W 136°03'511.0
2019-Jul-16 15:00N 58°26' W 135°58'510.8
2019-Jul-16 14:30N 58°20' W 135°57'611.1
2019-Jul-16 14:01N 58°18' W 135°47'612.0
2019-Jul-16 13:30N 58°16' W 135°36'612.1
2019-Jul-16 13:00N 58°14' W 135°25'612.1
2019-Jul-16 12:28N 58°12' W 135°14'38010.1
2019-Jul-14 23:00N 52°12' W 131°42'3316.3 260 / 71017.310.8 16.2 16.4
2019-Jul-14 21:00N 51°48' W 131°06'6422.3 260 / 61018.510.8 15.810.714.2
2019-Jul-14 18:08N 51°02' W 129°55'2021.6
2019-Jul-14 17:14N 50°48' W 129°34'1221.7
2019-Jul-14 16:41N 50°40' W 129°20'421.5
2019-Jul-14 16:30N 50°37' W 129°16'1221.7
2019-Jul-14 15:58N 50°29' W 129°03'11421.7
2019-Jul-14 10:43N 49°13' W 126°51'521.4
2019-Jul-14 10:29N 49°10' W 126°45'1021.3
2019-Jul-14 10:00N 49°05' W 126°32'1021.0
2019-Jul-14 09:30N 48°59' W 126°18'1121.1
2019-Jul-14 09:00N 48°54' W 126°04'1122.0
2019-Jul-14 08:30N 48°48' W 125°50'1121.7
2019-Jul-14 08:00N 48°43' W 125°36'1121.5
2019-Jul-14 07:30N 48°40' W 125°20'1122.3
2019-Jul-14 07:00N 48°36' W 125°04'1121.7
2019-Jul-14 06:30N 48°32' W 124°49'1121.8
2019-Jul-14 06:00N 48°28' W 124°34'1121.5
2019-Jul-14 05:30N 48°24' W 124°19'1121.4
2019-Jul-14 05:00N 48°20' W 124°04'1019.3
2019-Jul-14 04:30N 48°17' W 123°50'918.1
2019-Jul-14 04:00N 48°16' W 123°36'53281.3
2019-Jul-14 04:00N 48°12' W 123°30'3 6.7 320 / 301015.910.8 14.512.513.5
2019-Jul-14 03:30N 48°12' W 123°25'510.8
2019-Jul-14 03:00N 48°10' W 123°18'1120.9
2019-Jul-14 02:30N 48°13' W 123°02'1121.1
2019-Jul-14 01:58N 48°11' W 122°46'1321.2
2019-Jul-14 01:22N 47°60' W 122°36'720.7
2019-Jul-14 01:01N 47°55' W 122°29'1019.7
2019-Jul-14 00:31N 47°45' W 122°26'714.5
2019-Jul-14 00:00N 47°38' W 122°26'2 3.5
2019-Jul-13 23:29N 47°38' W 122°23'0 0.0
2019-Jul-13 22:59N 47°38' W 122°23'0 0.0
2019-Jul-13 22:29N 47°38' W 122°23'0 0.0
2019-Jul-13 21:59N 47°38' W 122°23'0 0.0
2019-Jul-13 21:30N 47°38' W 122°23'0 0.0
2019-Jul-13 20:58N 47°38' W 122°23'0 0.0
2019-Jul-13 20:30N 47°38' W 122°23'0 0.0
2019-Jul-13 19:59N 47°38' W 122°23'0 0.0
2019-Jul-13 19:29N 47°38' W 122°23'0 0.0
2019-Jul-13 18:54N 47°38' W 122°23'0 0.0
2019-Jul-13 18:26N 47°38' W 122°23'0 0.0
2019-Jul-13 17:59N 47°38' W 122°23'0 0.0
2019-Jul-13 17:29N 47°38' W 122°23'0 0.0
2019-Jul-13 16:59N 47°38' W 122°23'0 0.0
2019-Jul-13 16:29N 47°38' W 122°23'0 0.0
2019-Jul-13 15:56N 47°38' W 122°23'0 0.0
2019-Jul-13 15:29N 47°38' W 122°23'0 0.0
2019-Jul-13 14:59N 47°38' W 122°23'0 0.0
2019-Jul-13 14:29N 47°38' W 122°23'0 0.0
2019-Jul-13 13:59N 47°38' W 122°23'0 0.0
2019-Jul-13 13:29N 47°38' W 122°23'0 0.0
2019-Jul-13 12:56N 47°38' W 122°23'0 0.0
2019-Jul-13 12:30N 47°38' W 122°23'2 3.2
2019-Jul-13 12:01N 47°37' W 122°25'713.2
2019-Jul-13 11:31N 47°43' W 122°27'816.6
2019-Jul-13 11:00N 47°52' W 122°29'815.3
2019-Jul-13 10:28N 47°58' W 122°36'715.8
2019-Jul-13 10:00N 48°05' W 122°40'815.9
2019-Jul-13 09:30N 48°11' W 122°48'816.8
2019-Jul-13 09:00N 48°12' W 123°01'816.6
2019-Jul-13 08:30N 48°11' W 123°13'715.0
2019-Jul-13 08:00N 48°10' W 123°24'915.7
2019-Jul-13 07:27N 48°18' W 123°28'614.3
2019-Jul-13 07:01N 48°24' W 123°24'1 1.7
2019-Jul-13 06:28N 48°25' W 123°23'0 0.0
2019-Jul-13 05:58N 48°25' W 123°23'0 0.0
2019-Jul-13 05:28N 48°25' W 123°23'0 0.0
2019-Jul-13 04:58N 48°25' W 123°23'0 0.0
2019-Jul-13 04:28N 48°25' W 123°23'0 0.0
2019-Jul-13 03:58N 48°25' W 123°23'0 0.0
2019-Jul-13 03:28N 48°25' W 123°23'0 0.0
2019-Jul-13 03:00N 48°25' W 123°23'0 0.0
2019-Jul-13 02:30N 48°25' W 123°23'0 0.0
2019-Jul-13 01:59N 48°25' W 123°23'0 0.0
2019-Jul-13 01:29N 48°25' W 123°23'1 2.3
2019-Jul-13 01:01N 48°24' W 123°25'611.5
2019-Jul-13 00:30N 48°19' W 123°25'917.4
2019-Jul-12 23:59N 48°13' W 123°36'1021.7
2019-Jul-12 23:30N 48°13' W 123°52'1121.6
2019-Jul-12 23:00N 48°17' W 124°07'1122.3
2019-Jul-12 22:30N 48°22' W 124°22'1122.5
2019-Jul-12 22:00N 48°26' W 124°37'3161.9
2019-Jul-12 22:00N 48°24' W 124°36'1325.3 300 / 111016.8 0.1 16.013.114.6
2019-Jul-12 21:29N 48°28' W 124°54'1121.9
2019-Jul-12 21:00N 48°29' W 125°10'1121.5
2019-Jul-12 20:30N 48°34' W 125°24'1121.5
2019-Jul-12 20:00N 48°39' W 125°38'1121.7
2019-Jul-12 19:30N 48°45' W 125°52'1121.6
2019-Jul-12 19:00N 48°51' W 126°06'1122.0
2019-Jul-12 18:30N 48°57' W 126°20'1122.1
2019-Jul-12 18:00N 49°03' W 126°33'1121.5
2019-Jul-12 17:29N 49°10' W 126°47'12 7.7
2019-Jul-12 16:00N 49°18' W 127°00'2019.7 150 / 91017.610.8 16.013.014.5
2019-Jul-12 15:00N 49°30' W 127°24'4343.1 150 / 101017.110.8 15.513.414.7
2019-Jul-12 14:00N 50°00' W 128°12'1921.3 120 / 191017.110.8 15.413.414.8
2019-Jul-12 13:06N 50°16' W 128°27'217.2
2019-Jul-12 13:00N 50°18' W 128°28'1121.0
2019-Jul-12 12:30N 50°28' W 128°33'1121.7
2019-Jul-12 12:00N 50°38' W 128°39'1020.9
2019-Jul-12 11:30N 50°48' W 128°44'1020.9
2019-Jul-12 11:00N 50°57' W 128°52'1020.7
2019-Jul-12 10:30N 51°06' W 129°00'1121.2
2019-Jul-12 10:00N 51°16' W 129°08'1121.3
2019-Jul-12 09:30N 51°25' W 129°16'1020.9
2019-Jul-12 09:00N 51°34' W 129°24'1121.2
2019-Jul-12 08:30N 51°44' W 129°31'1122.0
2019-Jul-12 08:00N 51°54' W 129°38'1422.0
2019-Jul-12 07:23N 52°07' W 129°48'921.8
2019-Jul-12 06:59N 52°14' W 129°54'1021.3
2019-Jul-12 06:29N 52°24' W 130°01'3322.2
2019-Jul-12 05:00N 52°54' W 130°24'1519.7 150 / 151018.0 5.4 15.013.814.0
2019-Jul-12 04:13N 53°08' W 130°35'421.3
2019-Jul-12 04:00N 53°12' W 130°38'1121.4
2019-Jul-12 03:30N 53°22' W 130°46'816.5
2019-Jul-12 03:00N 53°30' W 130°48'31057.6 150 / 201017.5 5.4 14.413.815.0
2019-Jul-12 02:59N 53°32' W 130°51'1020.5
2019-Jul-12 02:30N 53°42' W 130°54'1224.1
2019-Jul-12 02:00N 53°54' W 130°54'917.7 150 / 241017.0 5.4 15.014.214.3
2019-Jul-12 01:30N 54°02' W 130°59'1121.2
2019-Jul-12 01:00N 54°13' W 131°02'184.6
2019-Jul-12 01:00N 54°12' W 131°00'1224.1 180 / 211017.9 5.4 14.613.615.6
2019-Jul-12 00:30N 54°22' W 131°10'1121.2
2019-Jul-12 00:00N 54°31' W 131°20'2220.4
2019-Jul-11 22:55N 54°50' W 131°40'103 6.5
2019-Jul-11 07:00N 56°06' W 133°42'3718.7 190 / 161012.810.8 12.911.615.5
2019-Jul-11 05:00N 56°00' W 134°48'133 5.5 300 / 161011.410.8 13.612.515.9
2019-Jul-10 05:00N 57°54' W 136°54'3312.4 310 / 111013.810.8 14.811.512.7
2019-Jul-10 02:22N 58°19' W 136°14'514.1
2019-Jul-10 02:00N 58°20' W 136°05'161006.4
2019-Jul-10 02:00N 58°36' W 136°06'   250 / 241012.810.8 15.511.511.2

Dump ship's entire track history